Time;durP1;ratioP1;P1;durP2;ratioP2;P2;SDS_P1;SDS_P2;PMS_P1;PMS_P2;Temp;Humidity;BMP_temperature;BMP_pressure;BME280_temperature;BME280_humidity;BME280_pressure;Samples;Min_cycle;Max_cycle;Signal;HPM_P1;HPM_P2
2024/02/08 00:00:29;;;;;;;7.20;4.00;;;;;;;0.68;91.80;98975.64;1789036;80;25623;-43
2024/02/08 00:02:58;;;;;;;5.22;4.37;;;;;;;0.66;91.84;98972.98;1789088;80;25473;-44
2024/02/08 00:05:26;;;;;;;7.35;4.75;;;;;;;0.64;91.80;98979.11;1789100;80;26089;-43
2024/02/08 00:07:53;;;;;;;10.85;5.90;;;;;;;0.61;91.87;98980.45;1789175;80;25477;-44
2024/02/08 00:10:19;;;;;;;8.85;5.55;;;;;;;0.59;91.93;98982.59;1789053;80;27773;-43
2024/02/08 00:12:46;;;;;;;7.72;5.10;;;;;;;0.57;92.08;98984.73;1789019;80;25786;-43
2024/02/08 00:15:15;;;;;;;8.78;4.90;;;;;;;0.57;92.28;98990.60;1789113;80;25394;-44
2024/02/08 00:17:41;;;;;;;7.70;4.60;;;;;;;0.54;92.40;98989.27;1788946;80;26337;-42
2024/02/08 00:20:09;;;;;;;7.12;4.15;;;;;;;0.53;92.35;98992.48;1789119;80;25396;-43
2024/02/08 00:22:35;;;;;;;9.85;4.60;;;;;;;0.53;92.42;99001.00;1789097;80;27506;-43
2024/02/08 00:25:01;;;;;;;7.78;4.05;;;;;;;0.51;92.54;98997.80;1788963;80;25556;-43
2024/02/08 00:27:28;;;;;;;7.55;4.17;;;;;;;0.49;92.46;99007.38;1789053;80;25599;-43
2024/02/08 00:29:54;;;;;;;6.72;3.67;;;;;;;0.50;92.51;99008.20;1789027;80;25599;-43
2024/02/08 00:32:20;;;;;;;8.53;4.37;;;;;;;0.50;92.53;99005.53;1794827;80;25619;-43
2024/02/08 00:34:48;;;;;;;7.42;4.10;;;;;;;0.50;92.75;99006.87;1794885;80;28531;-43
2024/02/08 00:37:15;;;;;;;7.95;4.55;;;;;;;0.50;92.86;99001.55;1794884;80;25386;-44
2024/02/08 00:39:44;;;;;;;7.25;4.30;;;;;;;0.50;92.93;99006.32;1794930;80;25393;-43
2024/02/08 00:42:11;;;;;;;8.78;4.12;;;;;;;0.52;93.21;99004.72;1795049;80;25821;-44
2024/02/08 00:44:43;;;;;;;6.65;3.95;;;;;;;0.55;93.36;98997.53;1794973;80;25629;-45
2024/02/08 00:47:12;;;;;;;6.35;4.25;;;;;;;0.57;93.39;99004.70;1794971;80;28173;-46
2024/02/08 00:49:39;;;;;;;;;;;;;;;0.58;93.34;99006.81;1797497;80;25519;-43
2024/02/08 00:52:07;;;;;;;7.12;3.80;;;;;;;0.62;93.40;99005.22;1794983;79;25521;-46
2024/02/08 00:54:37;;;;;;;8.45;4.50;;;;;;;0.62;93.30;99001.22;1794956;80;25474;-46
2024/02/08 00:57:10;;;;;;;8.35;4.00;;;;;;;0.63;93.40;99004.13;1795099;80;25555;-45
2024/02/08 00:59:38;;;;;;;8.08;3.98;;;;;;;0.63;93.26;99005.45;1794991;80;27855;-43
2024/02/08 01:02:11;;;;;;;12.00;4.75;;;;;;;0.63;93.24;99008.94;1794847;80;25417;-42
2024/02/08 01:04:37;;;;;;;7.47;4.30;;;;;;;0.63;93.26;99017.43;1794955;80;25490;-43
2024/02/08 01:07:04;;;;;;;9.38;4.75;;;;;;;0.63;93.09;99013.44;1795005;80;25474;-43
2024/02/08 01:09:31;;;;;;;8.40;5.53;;;;;;;0.61;92.86;99016.92;1794913;80;25469;-43
2024/02/08 01:12:01;;;;;;;8.73;5.60;;;;;;;0.60;92.78;99023.33;1794917;80;27518;-44
2024/02/08 01:14:27;;;;;;;8.28;5.60;;;;;;;0.57;92.66;99025.98;1794654;80;25758;-43
2024/02/08 01:16:54;;;;;;;8.70;5.15;;;;;;;0.53;92.56;99028.95;1794921;80;25594;-44
2024/02/08 01:19:22;;;;;;;8.30;5.03;;;;;;;0.49;92.42;99036.65;1794898;80;25854;-43
2024/02/08 01:21:53;;;;;;;9.43;4.92;;;;;;;0.48;92.39;99034.28;1794930;80;25482;-45
2024/02/08 01:24:19;;;;;;;9.03;4.85;;;;;;;0.46;92.42;99029.75;1794869;80;27477;-43
2024/02/08 01:26:48;;;;;;;9.03;5.35;;;;;;;0.46;92.48;99035.07;1794841;80;25606;-42
2024/02/08 01:29:16;;;;;;;6.28;4.35;;;;;;;0.47;92.70;99037.46;1794870;80;25643;-45
2024/02/08 01:31:43;;;;;;;14.00;4.97;;;;;;;0.47;92.74;99036.67;1791426;80;25902;-43
2024/02/08 01:34:11;;;;;;;5.87;4.25;;;;;;;0.47;92.67;99038.80;1789068;80;25523;-43
2024/02/08 01:36:40;;;;;;;10.23;4.50;;;;;;;0.46;92.70;99038.55;1788976;80;27435;-44
2024/02/08 01:39:22;;;;;;;7.30;4.10;;;;;;;0.46;92.63;99037.22;1788619;80;25570;-43
2024/02/08 01:41:43;;;;;;;9.03;4.35;;;;;;;0.46;92.78;99041.20;1787571;80;25754;-43
2024/02/08 01:44:12;;;;;;;8.23;4.55;;;;;;;0.48;92.84;99035.62;1788999;80;25896;-44
2024/02/08 01:46:39;;;;;;;8.70;4.47;;;;;;;0.47;92.71;99027.36;1789114;80;25640;-44
2024/02/08 01:49:10;;;;;;;8.60;4.47;;;;;;;0.46;92.63;99031.89;1788966;80;28063;-44
2024/02/08 01:51:39;;;;;;;8.65;4.30;;;;;;;0.46;92.49;99029.75;1788953;80;25569;-43
2024/02/08 01:54:12;;;;;;;5.70;4.40;;;;;;;0.42;92.31;99029.50;1789150;80;25601;-43
2024/02/08 01:56:44;;;;;;;8.80;5.12;;;;;;;0.39;92.18;99026.05;1789011;80;25465;-44
2024/02/08 01:59:13;;;;;;;9.78;4.97;;;;;;;0.34;92.00;99024.73;1789081;80;25576;-43
2024/02/08 02:01:46;;;;;;;9.70;5.00;;;;;;;0.29;92.02;99020.25;1789016;80;28555;-44
2024/02/08 02:04:10;;;;;;;55.73;51.92;;;;;;;0.26;91.91;99032.77;1788354;80;25610;-43
2024/02/08 02:06:37;;;;;;;76.67;70.73;;;;;;;0.18;91.91;99018.69;1821317;78;25577;-44
2024/02/08 02:09:04;;;;;;;73.47;68.73;;;;;;;0.13;91.88;99028.02;1788929;80;25555;-42
2024/02/08 02:11:48;;;;;;;8.30;5.75;;;;;;;0.07;92.07;99015.28;1789024;80;25403;-44
2024/02/08 02:14:17;;;;;;;9.08;4.62;;;;;;;0.10;91.75;99033.36;1821374;78;28168;-42
2024/02/08 02:16:44;;;;;;;10.32;4.37;;;;;;;0.08;91.59;99038.13;1789011;80;25574;-42
2024/02/08 02:19:10;;;;;;;5.85;4.15;;;;;;;0.04;91.50;99042.40;1788999;80;25450;-42
2024/02/08 02:21:36;;;;;;;5.33;3.90;;;;;;;-0.01;91.41;99040.54;1788972;80;25507;-44
2024/02/08 02:24:07;;;;;;;6.92;4.42;;;;;;;-0.05;91.46;99042.16;1789044;80;25469;-42
2024/02/08 02:26:35;;;;;;;7.08;4.28;;;;;;;-0.09;91.39;99049.59;1789154;80;27813;-42
2024/02/08 02:29:04;;;;;;;7.53;4.10;;;;;;;-0.14;91.51;99040.30;1788821;80;25391;-42
2024/02/08 02:31:32;;;;;;;5.53;2.77;;;;;;;-0.17;91.56;99047.48;1789048;80;25494;-42
2024/02/08 02:34:00;;;;;;;6.67;4.55;;;;;;;-0.23;91.53;99048.81;1788957;80;25496;-42
2024/02/08 02:36:26;;;;;;;7.05;4.10;;;;;;;-0.26;91.52;99052.00;1789030;80;25560;-42
2024/02/08 02:38:52;;;;;;;8.08;4.55;;;;;;;-0.29;91.49;99051.74;1788979;80;27464;-41
2024/02/08 02:41:19;;;;;;;6.97;4.85;;;;;;;-0.33;91.50;99053.36;1788944;80;25616;-42
2024/02/08 02:43:47;;;;;;;9.60;5.30;;;;;;;-0.38;91.53;99054.94;1789168;80;25612;-42
2024/02/08 02:46:18;;;;;;;9.83;4.95;;;;;;;-0.40;91.54;99059.72;1789160;80;25540;-42
2024/02/08 02:48:42;;;;;;;8.93;4.90;;;;;;;-0.41;91.67;99059.98;1788836;80;25399;-44
2024/02/08 02:51:11;;;;;;;9.18;5.00;;;;;;;-0.44;91.83;99058.67;1789123;80;27345;-41
2024/02/08 02:53:40;;;;;;;7.35;5.03;;;;;;;-0.46;91.80;99061.31;1788971;80;25555;-42
2024/02/08 02:56:09;;;;;;;12.35;6.58;;;;;;;-0.48;91.69;99066.89;1789315;80;34633;-43
2024/02/08 02:58:35;;;;;;;14.10;5.97;;;;;;;-0.51;91.58;99079.91;1789266;80;25846;-42
2024/02/08 03:01:05;;;;;;;14.40;6.55;;;;;;;-0.53;91.77;99080.17;1789205;80;25659;-43
2024/02/08 03:03:40;;;;;;;;;;;;;;;-0.55;91.76;99073.01;1791808;80;28204;-42
2024/02/08 03:06:13;;;;;;;11.08;5.92;;;;;;;-0.56;91.78;99083.38;1789117;80;25598;-43
2024/02/08 03:08:38;;;;;;;9.10;5.60;;;;;;;-0.60;91.83;99088.41;1788634;80;25493;-43
2024/02/08 03:11:07;;;;;;;8.78;5.90;;;;;;;-0.62;92.13;99084.43;1789080;80;25468;-46
2024/02/08 03:13:34;;;;;;;;;;;;;;;-0.62;92.39;99090.53;1791855;80;25412;-43
2024/02/08 03:16:05;;;;;;;11.28;5.42;;;;;;;-0.59;92.66;99083.91;1789167;80;27483;-43
2024/02/08 03:18:29;;;;;;;10.30;5.55;;;;;;;-0.61;92.78;99083.38;1788300;80;25819;-44
2024/02/08 03:20:55;;;;;;;13.08;6.17;;;;;;;-0.59;92.84;99093.20;1789152;80;25465;-43
2024/02/08 03:23:24;;;;;;;6.65;4.60;;;;;;;-0.58;92.95;99090.29;1789124;80;25481;-44
2024/02/08 03:25:50;;;;;;;11.43;5.67;;;;;;;-0.56;93.04;99091.35;1789245;80;25454;-44
2024/02/08 03:28:17;;;;;;;9.08;4.97;;;;;;;-0.53;93.15;99091.34;1789138;80;27363;-43
2024/02/08 03:30:44;;;;;;;7.95;4.83;;;;;;;-0.51;93.13;99093.20;1789044;80;25453;-44
2024/02/08 03:33:15;;;;;;;8.55;5.33;;;;;;;-0.50;93.04;99086.30;1794210;80;25389;-43
2024/02/08 03:35:45;;;;;;;10.13;4.92;;;;;;;-0.47;93.02;99090.30;1794992;80;26517;-44
2024/02/08 03:38:11;;;;;;;15.18;5.25;;;;;;;-0.46;92.89;99097.19;1794796;80;25618;-43
2024/02/08 03:40:37;;;;;;;8.50;5.35;;;;;;;-0.45;92.91;99102.77;1795007;80;27475;-42
2024/02/08 03:43:04;;;;;;;9.23;5.08;;;;;;;-0.44;92.90;99103.84;1794921;80;25479;-42
2024/02/08 03:45:31;;;;;;;10.68;4.65;;;;;;;-0.42;92.84;99111.55;1795016;80;25453;-43
2024/02/08 03:47:59;;;;;;;5.62;4.12;;;;;;;-0.42;92.67;99112.88;1794965;80;25524;-42
2024/02/08 03:50:33;;;;;;;8.90;4.30;;;;;;;-0.42;92.79;99105.69;1794972;80;25547;-43
2024/02/08 03:53:01;;;;;;;8.40;4.78;;;;;;;-0.40;92.76;99106.22;1794712;79;27440;-43
2024/02/08 03:55:28;;;;;;;3.67;3.12;;;;;;;-0.38;92.75;99113.93;1794999;80;25570;-45
2024/02/08 03:58:00;;;;;;;10.05;4.10;;;;;;;-0.36;92.63;99122.97;1794942;80;25402;-44
2024/02/08 04:00:30;;;;;;;7.30;4.05;;;;;;;-0.37;92.58;99124.84;1794715;80;25638;-42
2024/02/08 04:03:04;;;;;;;6.85;4.20;;;;;;;-0.34;92.54;99121.66;1795067;80;25634;-43
2024/02/08 04:05:37;;;;;;;10.13;4.47;;;;;;;-0.33;92.44;99119.78;1794936;80;27474;-46
2024/02/08 04:08:22;;;;;;;7.85;4.45;;;;;;;-0.32;92.45;99118.20;1794948;80;25476;-43
2024/02/08 04:54:32;;;;;;;8.50;4.72;;;;;;;-0.79;91.18;99143.09;1792135;80;26559;-43
2024/02/08 04:57:03;;;;;;;7.95;4.20;;;;;;;-0.82;91.16;99140.95;1792179;80;25549;-43
2024/02/08 04:59:30;;;;;;;7.10;4.28;;;;;;;-0.83;91.15;99138.84;1792186;80;27470;-44
2024/02/08 05:01:56;;;;;;;6.22;3.85;;;;;;;-0.85;91.07;99138.30;1792004;80;26125;-42
2024/02/08 05:04:23;;;;;;;7.28;4.08;;;;;;;-0.87;91.17;99135.13;1792092;80;25537;-43
2024/02/08 05:06:50;;;;;;;5.30;3.42;;;;;;;-0.87;91.21;99139.61;1792074;80;26299;-43
2024/02/08 05:09:19;;;;;;;7.58;3.95;;;;;;;-0.88;91.40;99140.16;1792255;80;25398;-42
2024/02/08 05:11:49;;;;;;;4.37;3.50;;;;;;;-0.89;91.60;99142.52;1792290;80;28214;-43
2024/02/08 05:14:20;;;;;;;9.40;3.80;;;;;;;-0.90;91.44;99132.16;1791977;80;26043;-44
2024/02/08 05:16:54;;;;;;;6.00;3.42;;;;;;;-0.93;91.37;99138.81;1792152;80;25568;-42
2024/02/08 05:19:17;;;;;;;6.20;3.92;;;;;;;-0.93;91.42;99145.98;1791234;80;25631;-43
2024/02/08 05:21:43;;;;;;;52.35;48.52;;;;;;;-0.95;91.49;99143.05;1792145;80;25431;-43
2024/02/08 05:24:13;;;;;;;12.85;9.35;;;;;;;-0.95;91.55;99138.28;1779351;80;27464;-42
2024/02/08 05:26:40;;;;;;;7.92;4.12;;;;;;;-0.96;91.58;99143.30;1773259;80;26046;-43
2024/02/08 05:29:13;;;;;;;5.85;4.67;;;;;;;-0.98;91.58;99139.58;1773291;80;25408;-41
2024/02/08 05:31:41;;;;;;;4.83;3.35;;;;;;;-0.98;91.70;99140.91;1773237;80;25554;-43
2024/02/08 05:34:11;;;;;;;9.28;3.92;;;;;;;-1.00;91.69;99142.24;1800420;79;25597;-44
2024/02/08 05:36:39;;;;;;;20.48;18.57;;;;;;;-1.04;91.56;99145.95;1789209;80;28065;-44
2024/02/08 05:39:06;;;;;;;42.98;39.92;;;;;;;-1.05;91.76;99142.23;1821446;78;25570;-42
2024/02/08 05:41:34;;;;;;;44.38;40.75;;;;;;;-1.06;91.77;99140.62;1789035;80;25565;-43
2024/02/08 05:44:05;;;;;;;7.20;4.33;;;;;;;-1.08;91.90;99146.72;1821345;78;25491;-43
2024/02/08 05:46:37;;;;;;;8.55;4.30;;;;;;;-1.10;92.01;99146.19;1789096;80;25387;-42
2024/02/08 05:49:11;;;;;;;7.55;4.35;;;;;;;-1.11;92.06;99152.00;1788460;80;28330;-43
2024/02/08 05:51:38;;;;;;;11.12;5.37;;;;;;;-1.13;92.17;99148.28;1787918;80;26314;-42
2024/02/08 05:54:08;;;;;;;9.03;6.05;;;;;;;-1.10;92.21;99149.63;1789062;80;25514;-43
2024/02/08 05:56:39;;;;;;;8.60;5.45;;;;;;;-1.12;92.14;99149.09;1789001;80;25827;-44
2024/02/08 05:59:08;;;;;;;8.15;5.45;;;;;;;-1.12;92.21;99161.05;1789076;80;25553;-48
2024/02/08 06:01:46;;;;;;;11.95;7.50;;;;;;;-1.13;92.36;99166.86;1789182;80;27549;-42
2024/02/08 06:04:22;;;;;;;8.55;5.67;;;;;;;-1.16;92.41;99155.45;1788960;80;25483;-41
2024/02/08 06:06:52;;;;;;;9.23;6.15;;;;;;;-1.17;92.49;99165.00;1787684;80;25759;-42
2024/02/08 06:09:33;;;;;;;10.48;6.25;;;;;;;-1.16;92.48;99170.56;1786814;80;26457;-43
2024/02/08 06:11:40;;;;;;;11.63;6.33;;;;;;;-1.18;92.55;99169.48;1782533;80;25678;-43
2024/02/08 06:14:22;;;;;;;9.20;5.80;;;;;;;-1.17;92.61;99179.59;1785451;80;27430;-45
2024/02/08 06:16:47;;;;;;;;;;;;;;;-1.18;92.64;99177.45;1754506;81;25947;-41
2024/02/08 06:19:15;;;;;;;11.73;5.87;;;;;;;-1.18;92.52;99181.43;1788200;80;25686;-43
2024/02/08 06:21:43;;;;;;;8.20;4.53;;;;;;;-1.19;92.39;99185.16;1757171;81;25896;-42
2024/02/08 06:27:02;;;;;;;9.68;6.60;;;;;;;-1.19;92.45;99189.14;1756269;81;27234;-45
2024/02/08 06:29:42;;;;;;;12.05;6.58;;;;;;;-1.18;92.68;99184.63;1787802;80;26085;-42
2024/02/08 06:32:23;;;;;;;13.13;7.37;;;;;;;-1.17;92.77;99187.02;1783814;80;25400;-46
2024/02/08 06:34:45;;;;;;;12.63;6.72;;;;;;;-1.17;92.72;99184.36;1751978;81;25684;-41
2024/02/08 06:37:29;;;;;;;13.60;7.62;;;;;;;-1.17;92.68;99196.30;1761495;81;25566;-42
2024/02/08 06:39:57;;;;;;;13.35;7.12;;;;;;;-1.16;92.74;99198.42;1761038;81;27890;-40
2024/02/08 06:42:44;;;;;;;11.90;7.55;;;;;;;-1.14;92.78;99211.72;1783905;80;25605;-42
2024/02/08 06:48:14;;;;;;;11.55;7.40;;;;;;;-1.09;93.14;99210.95;1788983;80;25370;-43
2024/02/08 07:37:27;;;;;;;9.80;6.45;;;;;;;-0.26;94.55;99222.63;1757909;81;25800;-43
2024/02/08 07:40:01;;;;;;;9.63;5.65;;;;;;;-0.20;94.94;99225.58;1789191;80;25550;-43
2024/02/08 07:42:41;;;;;;;13.53;6.67;;;;;;;-0.15;94.96;99220.77;1757929;81;25789;-42
2024/02/08 07:45:05;;;;;;;12.98;5.85;;;;;;;-0.07;95.12;99228.23;1755185;81;25472;-43
2024/02/08 07:47:34;;;;;;;12.50;8.50;;;;;;;-0.02;95.14;99233.05;1789391;80;27501;-43
2024/02/08 07:50:05;;;;;;;13.28;8.50;;;;;;;0.06;95.47;99234.36;1789156;80;30051;-43
2024/02/08 07:57:59;;;;;;;12.25;7.80;;;;;;;0.26;94.94;99237.57;1787008;80;25521;-43
2024/02/08 08:03:09;;;;;;;13.30;8.85;;;;;;;0.37;94.66;99230.38;1786995;80;25557;-43
2024/02/08 08:05:42;;;;;;;17.10;9.60;;;;;;;0.40;94.19;99235.16;1786993;80;25573;-43
2024/02/08 08:08:32;;;;;;;20.92;11.75;;;;;;;0.48;94.90;99242.61;1787009;80;25612;-41
2024/02/08 08:11:04;;;;;;;;;;;;;;;0.57;94.96;99246.06;1789714;80;25450;-42
2024/02/08 08:19:07;;;;;;;;;;;;;;;0.69;94.14;99251.36;1789626;80;25554;-43
2024/02/08 08:21:30;;;;;;;12.15;7.60;;;;;;;0.76;94.26;99245.76;1785710;80;25613;-43
2024/02/08 08:24:02;;;;;;;13.90;7.70;;;;;;;0.79;93.97;99247.89;1787234;80;25643;-43
2024/02/08 08:26:44;;;;;;;14.05;8.08;;;;;;;0.81;93.74;99240.42;1786993;80;28360;-42
2024/02/08 08:29:17;;;;;;;12.68;7.20;;;;;;;0.88;93.70;99234.82;1786709;80;25824;-41
2024/02/08 08:31:53;;;;;;;14.50;7.47;;;;;;;0.90;93.04;99238.82;1793487;78;25636;-42
2024/02/08 08:37:26;;;;;;;17.15;7.97;;;;;;;0.98;92.65;99236.13;1825588;78;25568;-42
2024/02/08 08:40:20;;;;;;;13.62;8.68;;;;;;;1.03;92.75;99228.12;1820750;78;28448;-41
2024/02/08 08:42:17;;;;;;;16.67;8.75;;;;;;;1.09;92.46;99230.22;1820276;78;25608;-42
2024/02/08 08:44:51;;;;;;;16.90;9.48;;;;;;;1.17;92.74;99234.98;1825546;78;25548;-41
2024/02/08 08:47:19;;;;;;;14.95;8.00;;;;;;;1.23;92.86;99235.24;1825573;78;25574;-42
2024/02/08 08:49:50;;;;;;;13.15;8.48;;;;;;;1.30;92.94;99223.75;1825531;78;25465;-42
2024/02/08 08:52:23;;;;;;;15.35;8.68;;;;;;;1.38;93.03;99222.91;1824945;78;27945;-42
2024/02/08 08:54:56;;;;;;;14.65;8.98;;;;;;;1.44;92.26;99233.81;1823361;78;25554;-42
2024/02/08 08:57:12;;;;;;;12.20;8.40;;;;;;;1.44;91.78;99232.48;1822240;78;25478;-42
2024/02/08 08:59:43;;;;;;;11.22;7.08;;;;;;;1.47;91.59;99228.73;1825513;78;25667;-42
2024/02/08 09:02:10;;;;;;;11.35;7.22;;;;;;;1.51;91.39;99236.97;1825538;78;25551;-43
2024/02/08 09:04:37;;;;;;;12.45;7.05;;;;;;;1.54;90.85;99236.97;1825475;78;27246;-40
2024/02/08 09:07:11;;;;;;;12.10;6.53;;;;;;;1.56;90.38;99246.27;1825378;78;25386;-42
2024/02/08 09:09:57;;;;;;;40.73;37.30;;;;;;;1.55;89.77;99239.37;1825515;78;25433;-41
2024/02/08 09:12:28;;;;;;;14.15;9.85;;;;;;;1.57;90.14;99238.55;1825452;78;25544;-42
2024/02/08 09:15:00;;;;;;;16.32;12.43;;;;;;;1.59;88.94;99250.27;1825539;78;25594;-43
2024/02/08 09:17:43;;;;;;;11.15;6.58;;;;;;;1.62;89.25;99247.86;1824962;78;28348;-43
2024/02/08 09:19:59;;;;;;;10.43;6.47;;;;;;;1.64;88.99;99244.91;1821439;78;25473;-42
2024/02/08 09:22:23;;;;;;;11.48;6.60;;;;;;;1.67;88.87;99245.70;1825025;78;25524;-42
2024/02/08 09:24:50;;;;;;;14.63;6.85;;;;;;;1.67;88.26;99239.83;1825443;78;25566;-42
2024/02/08 09:27:25;;;;;;;10.63;6.35;;;;;;;1.66;88.32;99236.10;1825445;78;25455;-41
2024/02/08 09:29:56;;;;;;;11.53;6.37;;;;;;;1.73;88.76;99233.92;1824339;78;27689;-41
2024/02/08 09:35:13;;;;;;;12.98;7.33;;;;;;;1.79;88.11;99236.04;1814706;78;25451;-41
2024/02/08 09:37:47;;;;;;;8.50;5.97;;;;;;;1.90;88.52;99246.88;1812491;79;26306;-42
2024/02/08 09:42:57;;;;;;;11.15;6.10;;;;;;;1.95;87.59;99237.52;1812724;78;27927;-42
2024/02/08 09:48:10;;;;;;;10.60;6.33;;;;;;;2.14;87.61;99233.64;1812503;79;25511;-43
2024/02/08 09:50:36;;;;;;;13.95;5.85;;;;;;;2.21;87.72;99238.14;1811805;79;25550;-42
2024/02/08 09:53:15;;;;;;;9.65;5.85;;;;;;;2.23;86.05;99235.98;1812486;79;25646;-43
2024/02/08 09:55:35;;;;;;;8.83;5.45;;;;;;;2.19;85.35;99242.94;1810967;79;27391;-41
2024/02/08 09:58:04;;;;;;;14.78;6.83;;;;;;;2.16;83.95;99240.85;1812365;79;25923;-42
2024/02/08 10:00:35;;;;;;;8.63;5.87;;;;;;;2.10;84.85;99230.50;1812720;79;25588;-41
2024/02/08 10:03:05;;;;;;;11.78;6.08;;;;;;;2.14;84.73;99235.52;1812483;79;25380;-42
2024/02/08 10:05:57;;;;;;;11.50;6.20;;;;;;;2.17;84.87;99229.08;1812543;79;25417;-42
2024/02/08 10:08:28;;;;;;;9.80;6.22;;;;;;;2.16;83.75;99236.84;1812066;79;28155;-42
2024/02/08 10:11:11;;;;;;;8.98;6.12;;;;;;;2.13;83.25;99230.73;1812399;79;25510;-41
2024/02/08 10:14:02;;;;;;;11.95;6.25;;;;;;;2.15;83.84;99236.58;1812486;79;25429;-41
2024/02/08 10:16:30;;;;;;;9.28;5.17;;;;;;;2.17;83.43;99230.42;1810939;79;25307;-41
2024/02/08 10:19:16;;;;;;;11.50;6.80;;;;;;;2.18;83.10;99228.54;1812539;79;25407;-40
2024/02/08 10:21:35;;;;;;;12.23;7.78;;;;;;;2.17;82.53;99221.63;1809851;79;27298;-42
2024/02/08 10:24:11;;;;;;;14.03;7.90;;;;;;;2.12;82.88;99220.34;1811741;79;25534;-42
2024/02/08 10:26:45;;;;;;;13.47;8.37;;;;;;;2.05;82.66;99219.31;1810401;79;25627;-42
2024/02/08 10:29:14;;;;;;;17.77;8.85;;;;;;;2.02;82.76;99203.86;1811629;79;26404;-42
2024/02/08 10:31:37;;;;;;;14.30;9.33;;;;;;;1.94;82.22;99203.94;1811361;79;25471;-42
2024/02/08 10:34:10;;;;;;;16.07;8.33;;;;;;;1.90;82.51;99209.55;1782030;79;27324;-41
2024/02/08 10:36:40;;;;;;;16.45;8.50;;;;;;;1.89;82.56;99215.97;1795901;79;25379;-41
2024/02/08 10:39:23;;;;;;;17.77;8.55;;;;;;;1.88;82.77;99218.37;1795963;79;25588;-42
2024/02/08 10:44:32;;;;;;;14.25;7.08;;;;;;;1.85;82.10;99206.92;1796096;79;25592;-42
2024/02/08 10:46:57;;;;;;;37.73;21.02;;;;;;;1.81;81.82;99202.67;1794391;79;27331;-41
2024/02/08 10:49:26;;;;;;;14.73;8.03;;;;;;;1.78;82.14;99199.23;1796021;79;25431;-42
2024/02/08 10:52:00;;;;;;;9.58;4.83;;;;;;;1.76;82.06;99196.05;1796160;79;25613;-42
2024/02/08 10:54:27;;;;;;;10.48;6.17;;;;;;;1.76;82.20;99197.92;1795245;79;25479;-43
2024/02/08 10:57:06;;;;;;;12.63;7.37;;;;;;;1.79;82.35;99194.71;1795508;79;25427;-42
2024/02/08 10:59:47;;;;;;;11.10;6.37;;;;;;;1.80;82.54;99192.28;1779966;79;27780;-42
2024/02/08 11:02:31;;;;;;;11.10;7.08;;;;;;;1.88;83.05;99190.91;1794799;79;25600;-42
2024/02/08 11:04:42;;;;;;;11.50;6.78;;;;;;;1.91;82.76;99187.16;1793476;79;25372;-43
2024/02/08 11:07:23;;;;;;;11.53;6.83;;;;;;;1.94;82.75;99181.27;1796288;79;25585;-42
2024/02/08 11:09:46;;;;;;;15.18;6.53;;;;;;;1.91;82.28;99175.66;1795276;79;25283;-42
2024/02/08 11:12:29;;;;;;;11.08;5.30;;;;;;;1.82;81.18;99180.28;1796141;79;28322;-41
2024/02/08 11:15:17;;;;;;;10.30;5.47;;;;;;;1.76;81.27;99188.05;1795427;79;25553;-41
2024/02/08 11:17:50;;;;;;;10.05;5.15;;;;;;;1.72;81.27;99180.36;1796199;79;25646;-41
2024/02/08 11:20:42;;;;;;;13.13;4.95;;;;;;;1.70;81.67;99174.48;1796177;79;25407;-43
2024/02/08 11:23:23;;;;;;;10.65;6.35;;;;;;;1.71;81.30;99171.30;1796232;79;25442;-42
2024/02/08 11:25:48;;;;;;;10.50;5.90;;;;;;;1.69;80.98;99170.24;1795515;79;27221;-43
2024/02/08 11:28:16;;;;;;;43.65;19.80;;;;;;;1.70;81.73;99159.81;1796115;79;26171;-41
2024/02/08 11:30:46;;;;;;;14.18;5.95;;;;;;;1.74;81.55;99168.05;1796158;79;25668;-42
2024/02/08 11:33:14;;;;;;;10.40;5.10;;;;;;;1.74;81.19;99163.54;1795761;79;25627;-43
2024/02/08 11:35:54;;;;;;;8.63;4.37;;;;;;;1.78;82.03;99157.90;1818468;78;25604;-42
2024/02/08 11:38:21;;;;;;;13.15;5.10;;;;;;;1.84;82.12;99156.80;1823025;78;27196;-41
2024/02/08 11:40:49;;;;;;;9.83;5.12;;;;;;;1.92;81.92;99158.59;1823120;78;25588;-42
2024/02/08 11:43:23;;;;;;;13.25;6.25;;;;;;;1.94;81.56;99164.45;1825740;78;25517;-45
2024/02/08 11:45:54;;;;;;;15.50;5.80;;;;;;;1.96;81.81;99163.11;1825346;78;25575;-44
2024/02/08 11:48:31;;;;;;;12.85;5.78;;;;;;;2.02;81.36;99165.97;1824333;78;25642;-44
2024/02/08 11:51:14;;;;;;;11.63;5.22;;;;;;;2.01;80.92;99168.91;1825541;78;27495;-40
2024/02/08 11:53:44;;;;;;;8.85;5.12;;;;;;;1.98;79.27;99159.61;1825496;78;25432;-42
2024/02/08 11:56:20;;;;;;;11.22;5.15;;;;;;;1.97;80.25;99170.56;1825597;78;25552;-40
2024/02/08 11:58:54;;;;;;;11.55;4.78;;;;;;;1.98;80.11;99168.16;1794140;78;26014;-41
2024/02/08 12:01:25;;;;;;;13.40;4.78;;;;;;;1.98;79.52;99154.83;1824994;78;25473;-42
2024/02/08 12:03:53;;;;;;;9.90;5.30;;;;;;;2.02;80.24;99159.30;1825665;78;27463;-41
2024/02/08 12:06:22;;;;;;;12.37;5.10;;;;;;;2.05;79.83;99158.75;1825461;78;25446;-41
2024/02/08 12:09:03;;;;;;;7.45;4.50;;;;;;;2.04;79.33;99143.84;1825555;78;25640;-42
2024/02/08 12:11:34;;;;;;;8.20;4.30;;;;;;;2.05;79.41;99139.30;1825398;78;25628;-42
2024/02/08 12:14:10;;;;;;;8.88;4.00;;;;;;;1.99;78.38;99135.06;1825548;78;25687;-43
2024/02/08 12:16:46;;;;;;;10.95;4.15;;;;;;;1.95;78.24;99132.16;1825475;78;27833;-42
2024/02/08 12:19:14;;;;;;;6.55;3.60;;;;;;;1.87;77.48;99123.42;1823021;78;25589;-45
2024/02/08 12:21:42;;;;;;;9.58;4.20;;;;;;;1.80;77.98;99118.41;1825482;78;25598;-45
2024/02/08 12:24:16;;;;;;;7.40;3.70;;;;;;;1.83;77.60;99121.08;1825469;78;26489;-40
2024/02/08 12:26:53;;;;;;;7.58;3.75;;;;;;;1.82;77.99;99128.28;1825506;78;25604;-44
2024/02/08 12:29:18;;;;;;;7.37;3.67;;;;;;;1.84;78.39;99120.80;1824308;78;27814;-45
2024/02/08 12:31:48;;;;;;;88.85;54.67;;;;;;;1.90;78.13;99126.88;1825421;78;25517;-44
2024/02/08 12:34:20;;;;;;;12.23;6.22;;;;;;;1.93;77.87;99120.98;1825092;78;25609;-42
2024/02/08 12:36:50;;;;;;;7.35;3.90;;;;;;;2.01;78.41;99132.39;1812550;79;25666;-43
2024/02/08 12:39:21;;;;;;;7.53;3.90;;;;;;;2.04;78.01;99128.35;1812635;79;25681;-44
2024/02/08 12:41:50;;;;;;;7.95;3.80;;;;;;;2.05;77.63;99129.41;1812564;79;27319;-43
2024/02/08 12:44:20;;;;;;;6.95;3.75;;;;;;;2.12;77.82;99128.30;1785293;79;27129;-43
2024/02/08 12:46:56;;;;;;;11.12;4.33;;;;;;;2.17;77.69;99128.25;1812542;79;25375;-43
2024/02/08 12:49:25;;;;;;;10.55;4.83;;;;;;;2.19;77.59;99118.88;1812529;79;26048;-42
2024/02/08 12:51:59;;;;;;;8.30;4.50;;;;;;;2.20;76.85;99122.36;1812644;79;25605;-43
2024/02/08 12:54:28;;;;;;;9.15;4.80;;;;;;;2.13;76.53;99112.02;1812408;79;27446;-43
2024/02/08 12:57:10;;;;;;;8.08;4.10;;;;;;;2.07;76.68;99104.34;1812406;79;25505;-41
2024/02/08 12:59:42;;;;;;;9.33;4.55;;;;;;;2.05;77.06;99101.95;1812506;79;25548;-43
2024/02/08 13:02:17;;;;;;;9.48;4.87;;;;;;;2.02;76.81;99098.50;1812565;79;25644;-41
2024/02/08 13:04:50;;;;;;;8.78;4.62;;;;;;;1.98;77.09;99101.48;1812551;79;25380;-40
2024/02/08 13:07:25;;;;;;;9.05;4.90;;;;;;;1.99;77.54;99100.39;1812495;79;27000;-41
2024/02/08 13:09:53;;;;;;;8.13;4.40;;;;;;;2.01;78.22;99101.72;1811954;79;25862;-41
2024/02/08 13:12:20;;;;;;;9.38;5.28;;;;;;;2.05;78.26;99104.06;1809644;79;25442;-40
2024/02/08 13:14:53;;;;;;;12.58;5.17;;;;;;;2.08;78.07;99102.73;1812388;79;25990;-41
2024/02/08 13:17:26;;;;;;;10.05;4.90;;;;;;;2.07;77.45;99100.34;1812582;79;25467;-40
2024/02/08 13:19:57;;;;;;;11.97;5.85;;;;;;;2.05;77.73;99093.39;1812498;79;28006;-40
2024/02/08 13:22:31;;;;;;;13.83;5.10;;;;;;;2.04;77.54;99088.34;1812530;79;25442;-40
2024/02/08 13:25:03;;;;;;;8.00;5.00;;;;;;;2.01;77.17;99087.56;1812554;79;25603;-42
2024/02/08 13:27:29;;;;;;;10.60;5.17;;;;;;;1.98;77.53;99079.60;1812491;79;25860;-41
2024/02/08 13:30:01;;;;;;;9.40;4.70;;;;;;;1.95;77.48;99081.49;1812481;78;25515;-41
2024/02/08 13:32:30;;;;;;;14.53;5.87;;;;;;;1.88;77.34;99072.25;1812382;79;27466;-40
2024/02/08 13:35:04;;;;;;;13.48;5.70;;;;;;;1.83;77.40;99084.53;1814621;78;25361;-41
2024/02/08 13:37:29;;;;;;;8.65;5.40;;;;;;;1.78;77.40;99075.24;1825293;78;25185;-41
2024/02/08 13:40:03;;;;;;;14.25;5.53;;;;;;;1.73;77.57;99077.17;1825385;78;25556;-42
2024/02/08 13:42:37;;;;;;;11.28;6.45;;;;;;;1.71;77.91;99065.99;1825249;78;25211;-41
2024/02/08 13:45:02;;;;;;;12.10;5.15;;;;;;;1.66;77.74;99076.94;1825369;78;27873;-42
2024/02/08 13:47:36;;;;;;;11.93;5.67;;;;;;;1.62;77.79;99070.59;1825328;78;25555;-41
2024/02/08 13:50:00;;;;;;;9.35;5.33;;;;;;;1.58;77.69;99063.42;1824971;78;25540;-42
2024/02/08 13:52:30;;;;;;;10.38;6.15;;;;;;;1.54;77.84;99069.85;1825338;78;25748;-41
2024/02/08 13:54:58;;;;;;;9.95;5.65;;;;;;;1.56;78.21;99066.36;1824824;78;25413;-41